sensor_id;sensor_type;location;lat;lon;timestamp;pressure;altitude;pressure_sealevel;temperature;humidity
10466;BME280;5280;42.600;23.556;2022-09-20T00:01:40;93481.31;;;10.89;75.69
10466;BME280;5280;42.600;23.556;2022-09-20T00:04:08;93458.94;;;10.82;75.83
10466;BME280;5280;42.600;23.556;2022-09-20T00:06:35;93480.34;;;10.90;76.23
10466;BME280;5280;42.600;23.556;2022-09-20T00:09:03;93472.16;;;10.82;76.25
10466;BME280;5280;42.600;23.556;2022-09-20T00:11:32;93482.41;;;10.75;75.65
10466;BME280;5280;42.600;23.556;2022-09-20T00:14:01;93478.28;;;10.71;75.45
10466;BME280;5280;42.600;23.556;2022-09-20T00:16:33;93481.78;;;10.61;75.60
10466;BME280;5280;42.600;23.556;2022-09-20T00:19:07;93468.56;;;10.50;75.61
10466;BME280;5280;42.600;23.556;2022-09-20T00:21:34;93476.25;;;10.53;76.06
10466;BME280;5280;42.600;23.556;2022-09-20T00:24:02;93493.06;;;10.52;76.26
10466;BME280;5280;42.600;23.556;2022-09-20T00:26:30;93479.34;;;10.47;76.00
10466;BME280;5280;42.600;23.556;2022-09-20T00:28:57;93479.72;;;10.31;76.63
10466;BME280;5280;42.600;23.556;2022-09-20T00:31:24;93468.53;;;10.27;76.77
10466;BME280;5280;42.600;23.556;2022-09-20T00:33:52;93474.28;;;10.21;76.89
10466;BME280;5280;42.600;23.556;2022-09-20T00:36:38;93483.41;;;10.28;76.80
10466;BME280;5280;42.600;23.556;2022-09-20T00:39:05;93471.88;;;10.18;77.16
10466;BME280;5280;42.600;23.556;2022-09-20T00:41:32;93459.81;;;10.03;76.44
10466;BME280;5280;42.600;23.556;2022-09-20T00:43:59;93473.75;;;10.05;77.22
10466;BME280;5280;42.600;23.556;2022-09-20T00:46:33;93474.56;;;9.94;77.19
10466;BME280;5280;42.600;23.556;2022-09-20T00:49:05;93427.06;;;9.60;77.00
10466;BME280;5280;42.600;23.556;2022-09-20T00:51:39;93496.22;;;9.87;76.97
10466;BME280;5280;42.600;23.556;2022-09-20T00:54:10;93483.63;;;9.79;77.62
10466;BME280;5280;42.600;23.556;2022-09-20T00:56:40;93477.75;;;9.76;78.35
10466;BME280;5280;42.600;23.556;2022-09-20T00:59:13;93481.69;;;9.81;78.19
10466;BME280;5280;42.600;23.556;2022-09-20T01:01:42;93475.31;;;9.73;77.95
10466;BME280;5280;42.600;23.556;2022-09-20T01:04:10;93484.56;;;9.78;77.91
10466;BME280;5280;42.600;23.556;2022-09-20T01:06:41;93466.19;;;9.66;78.61
10466;BME280;5280;42.600;23.556;2022-09-20T01:09:09;93458.81;;;9.58;78.86
10466;BME280;5280;42.600;23.556;2022-09-20T01:11:37;93467.19;;;9.52;78.99
10466;BME280;5280;42.600;23.556;2022-09-20T01:14:04;93483.50;;;9.57;79.01
10466;BME280;5280;42.600;23.556;2022-09-20T01:16:32;93474.03;;;9.55;78.78
10466;BME280;5280;42.600;23.556;2022-09-20T01:19:01;93472.75;;;9.60;79.04
10466;BME280;5280;42.600;23.556;2022-09-20T01:21:31;93474.44;;;9.61;78.35
10466;BME280;5280;42.600;23.556;2022-09-20T01:24:05;93471.06;;;9.59;78.60
10466;BME280;5280;42.600;23.556;2022-09-20T01:26:48;93461.69;;;9.55;78.33
10466;BME280;5280;42.600;23.556;2022-09-20T01:29:34;93396.50;;;9.10;77.88
10466;BME280;5280;42.600;23.556;2022-09-20T01:32:07;93469.81;;;9.52;78.17
10466;BME280;5280;42.600;23.556;2022-09-20T01:34:42;93463.03;;;9.37;78.10
10466;BME280;5280;42.600;23.556;2022-09-20T01:37:16;93462.59;;;9.43;77.83
10466;BME280;5280;42.600;23.556;2022-09-20T01:39:50;93474.66;;;9.34;77.47
10466;BME280;5280;42.600;23.556;2022-09-20T01:42:23;93461.63;;;9.44;77.19
10466;BME280;5280;42.600;23.556;2022-09-20T01:45:00;93458.75;;;9.36;77.17
10466;BME280;5280;42.600;23.556;2022-09-20T01:47:32;93474.22;;;9.40;77.19
10466;BME280;5280;42.600;23.556;2022-09-20T01:50:06;93413.63;;;9.04;77.14
10466;BME280;5280;42.600;23.556;2022-09-20T01:52:57;93462.41;;;9.33;77.42
10466;BME280;5280;42.600;23.556;2022-09-20T01:55:52;93447.03;;;9.27;77.05
10466;BME280;5280;42.600;23.556;2022-09-20T01:59:07;93467.53;;;9.47;77.05
10466;BME280;5280;42.600;23.556;2022-09-20T02:02:15;93481.22;;;9.52;76.53
10466;BME280;5280;42.600;23.556;2022-09-20T02:05:15;93476.84;;;9.40;76.80
10466;BME280;5280;42.600;23.556;2022-09-20T02:11:12;93483.53;;;9.33;76.92
10466;BME280;5280;42.600;23.556;2022-09-20T02:14:02;93484.25;;;9.35;76.54
10466;BME280;5280;42.600;23.556;2022-09-20T02:16:44;93463.44;;;9.20;76.56
10466;BME280;5280;42.600;23.556;2022-09-20T02:19:33;93461.31;;;9.25;75.83
10466;BME280;5280;42.600;23.556;2022-09-20T02:22:17;93463.16;;;9.35;76.30
10466;BME280;5280;42.600;23.556;2022-09-20T02:24:54;93461.38;;;9.36;75.78
10466;BME280;5280;42.600;23.556;2022-09-20T02:27:30;93461.47;;;9.34;76.11
10466;BME280;5280;42.600;23.556;2022-09-20T02:30:14;93456.59;;;9.41;76.40
10466;BME280;5280;42.600;23.556;2022-09-20T02:32:57;93460.91;;;9.42;76.19
10466;BME280;5280;42.600;23.556;2022-09-20T02:35:48;93459.44;;;9.38;75.88
10466;BME280;5280;42.600;23.556;2022-09-20T02:38:29;93413.09;;;8.99;75.91
10466;BME280;5280;42.600;23.556;2022-09-20T02:44:09;93462.59;;;9.19;77.03
10466;BME280;5280;42.600;23.556;2022-09-20T02:46:46;93475.53;;;9.22;77.03
10466;BME280;5280;42.600;23.556;2022-09-20T02:49:27;93481.28;;;9.16;76.84
10466;BME280;5280;42.600;23.556;2022-09-20T02:52:05;93475.25;;;9.14;77.54
10466;BME280;5280;42.600;23.556;2022-09-20T02:54:44;93462.25;;;9.00;77.93
10466;BME280;5280;42.600;23.556;2022-09-20T02:57:21;93485.06;;;9.12;78.31
10466;BME280;5280;42.600;23.556;2022-09-20T02:59:56;93473.63;;;9.00;77.68
10466;BME280;5280;42.600;23.556;2022-09-20T03:02:36;93479.75;;;9.01;78.68
10466;BME280;5280;42.600;23.556;2022-09-20T03:05:12;93472.47;;;8.92;78.89
10466;BME280;5280;42.600;23.556;2022-09-20T03:07:57;93460.91;;;8.82;79.34
10466;BME280;5280;42.600;23.556;2022-09-20T03:10:34;93503.56;;;8.99;79.34
10466;BME280;5280;42.600;23.556;2022-09-20T03:13:20;93489.66;;;8.97;79.43
10466;BME280;5280;42.600;23.556;2022-09-20T03:16:02;93493.56;;;8.92;79.65
10466;BME280;5280;42.600;23.556;2022-09-20T03:18:34;93498.72;;;8.93;80.15
10466;BME280;5280;42.600;23.556;2022-09-20T03:21:14;93500.31;;;8.96;80.79
10466;BME280;5280;42.600;23.556;2022-09-20T03:23:59;93504.09;;;8.92;80.70
10466;BME280;5280;42.600;23.556;2022-09-20T03:26:38;93500.66;;;8.91;80.80
10466;BME280;5280;42.600;23.556;2022-09-20T03:29:20;93493.03;;;8.87;81.17
10466;BME280;5280;42.600;23.556;2022-09-20T03:32:04;93500.19;;;8.97;80.50
10466;BME280;5280;42.600;23.556;2022-09-20T03:34:42;93478.34;;;8.72;80.90
10466;BME280;5280;42.600;23.556;2022-09-20T03:37:24;93512.00;;;8.92;81.23
10466;BME280;5280;42.600;23.556;2022-09-20T03:40:22;93436.03;;;8.37;81.72
10466;BME280;5280;42.600;23.556;2022-09-20T03:42:59;93520.13;;;8.89;81.66
10466;BME280;5280;42.600;23.556;2022-09-20T03:45:47;93446.13;;;8.43;81.77
10466;BME280;5280;42.600;23.556;2022-09-20T03:48:38;93510.34;;;8.78;82.45
10466;BME280;5280;42.600;23.556;2022-09-20T03:51:21;93501.84;;;8.75;82.18
10466;BME280;5280;42.600;23.556;2022-09-20T03:57:09;93519.09;;;8.79;82.75
10466;BME280;5280;42.600;23.556;2022-09-20T03:59:57;93516.69;;;8.76;83.02
10466;BME280;5280;42.600;23.556;2022-09-20T04:02:43;93511.75;;;8.71;83.21
10466;BME280;5280;42.600;23.556;2022-09-20T04:05:25;93518.47;;;8.75;83.32
10466;BME280;5280;42.600;23.556;2022-09-20T04:08:02;93489.44;;;8.51;83.31
10466;BME280;5280;42.600;23.556;2022-09-20T04:10:37;93528.09;;;8.76;83.68
10466;BME280;5280;42.600;23.556;2022-09-20T04:13:19;93520.50;;;8.72;83.25
10466;BME280;5280;42.600;23.556;2022-09-20T04:16:02;93516.16;;;8.58;83.54
10466;BME280;5280;42.600;23.556;2022-09-20T04:18:35;93533.97;;;8.67;83.76
10466;BME280;5280;42.600;23.556;2022-09-20T04:21:09;93534.09;;;8.66;83.61
10466;BME280;5280;42.600;23.556;2022-09-20T04:23:44;93541.16;;;8.65;83.23
10466;BME280;5280;42.600;23.556;2022-09-20T04:26:14;93519.75;;;8.44;83.80
10466;BME280;5280;42.600;23.556;2022-09-20T04:28:51;93533.56;;;8.60;83.73
10466;BME280;5280;42.600;23.556;2022-09-20T04:31:28;93545.16;;;8.71;83.51
10466;BME280;5280;42.600;23.556;2022-09-20T04:33:59;93540.06;;;8.68;83.67
10466;BME280;5280;42.600;23.556;2022-09-20T04:36:53;93539.22;;;8.67;83.87
10466;BME280;5280;42.600;23.556;2022-09-20T04:39:29;93517.66;;;8.49;84.06
10466;BME280;5280;42.600;23.556;2022-09-20T04:42:40;93541.34;;;8.75;83.15
10466;BME280;5280;42.600;23.556;2022-09-20T04:45:32;93543.75;;;8.78;83.51
10466;BME280;5280;42.600;23.556;2022-09-20T04:48:45;93551.91;;;8.75;83.46
10466;BME280;5280;42.600;23.556;2022-09-20T04:51:50;93550.50;;;8.82;83.54
10466;BME280;5280;42.600;23.556;2022-09-20T04:54:45;93545.56;;;8.90;83.16
10466;BME280;5280;42.600;23.556;2022-09-20T04:57:38;93552.50;;;8.91;83.01
10466;BME280;5280;42.600;23.556;2022-09-20T05:00:12;93545.34;;;8.80;83.25
10466;BME280;5280;42.600;23.556;2022-09-20T05:03:22;93545.22;;;8.94;83.74
10466;BME280;5280;42.600;23.556;2022-09-20T05:11:59;93549.84;;;9.03;84.50
10466;BME280;5280;42.600;23.556;2022-09-20T05:17:38;93548.28;;;9.01;85.22
10466;BME280;5280;42.600;23.556;2022-09-20T05:20:27;93538.25;;;9.06;84.23
10466;BME280;5280;42.600;23.556;2022-09-20T05:26:05;93551.94;;;9.11;84.19
10466;BME280;5280;42.600;23.556;2022-09-20T05:28:38;93568.50;;;9.13;84.98
10466;BME280;5280;42.600;23.556;2022-09-20T05:31:13;93552.91;;;9.10;85.09
10466;BME280;5280;42.600;23.556;2022-09-20T05:33:46;93562.50;;;9.11;86.29
10466;BME280;5280;42.600;23.556;2022-09-20T05:36:25;93565.41;;;9.19;86.18
10466;BME280;5280;42.600;23.556;2022-09-20T05:38:59;93554.59;;;9.11;86.16
10466;BME280;5280;42.600;23.556;2022-09-20T05:41:36;93558.56;;;9.17;85.91
10466;BME280;5280;42.600;23.556;2022-09-20T05:44:10;93564.25;;;9.23;86.07
10466;BME280;5280;42.600;23.556;2022-09-20T05:46:56;93565.50;;;9.30;85.72
10466;BME280;5280;42.600;23.556;2022-09-20T05:49:39;93522.94;;;9.11;85.24
10466;BME280;5280;42.600;23.556;2022-09-20T05:52:25;93557.38;;;9.33;85.17
10466;BME280;5280;42.600;23.556;2022-09-20T05:58:06;93560.00;;;9.33;86.11
10466;BME280;5280;42.600;23.556;2022-09-20T06:00:41;93554.06;;;9.42;85.68
10466;BME280;5280;42.600;23.556;2022-09-20T06:03:14;93557.97;;;9.49;84.61
10466;BME280;5280;42.600;23.556;2022-09-20T06:05:52;93554.75;;;9.57;85.63
10466;BME280;5280;42.600;23.556;2022-09-20T06:08:42;93545.22;;;9.67;85.16
10466;BME280;5280;42.600;23.556;2022-09-20T06:11:24;93537.47;;;9.77;84.98
10466;BME280;5280;42.600;23.556;2022-09-20T06:14:02;93549.66;;;9.90;83.09
10466;BME280;5280;42.600;23.556;2022-09-20T06:16:39;93559.03;;;9.94;83.06
10466;BME280;5280;42.600;23.556;2022-09-20T06:19:15;93534.88;;;9.88;82.00
10466;BME280;5280;42.600;23.556;2022-09-20T06:21:50;93546.84;;;10.05;81.65
10466;BME280;5280;42.600;23.556;2022-09-20T06:24:34;93553.75;;;10.18;81.37
10466;BME280;5280;42.600;23.556;2022-09-20T06:27:05;93566.53;;;10.35;80.39
10466;BME280;5280;42.600;23.556;2022-09-20T06:29:37;93561.97;;;10.38;80.05
10466;BME280;5280;42.600;23.556;2022-09-20T06:32:06;93550.00;;;10.45;79.60
10466;BME280;5280;42.600;23.556;2022-09-20T06:34:32;93545.97;;;10.28;79.77
10466;BME280;5280;42.600;23.556;2022-09-20T06:37:07;93489.94;;;10.12;78.84
10466;BME280;5280;42.600;23.556;2022-09-20T06:39:59;93553.28;;;10.70;77.64
10466;BME280;5280;42.600;23.556;2022-09-20T06:42:49;93560.38;;;10.70;77.44
10466;BME280;5280;42.600;23.556;2022-09-20T06:45:17;93560.22;;;10.71;77.86
10466;BME280;5280;42.600;23.556;2022-09-20T06:47:44;93560.84;;;10.75;77.81
10466;BME280;5280;42.600;23.556;2022-09-20T06:50:14;93563.28;;;10.89;76.57
10466;BME280;5280;42.600;23.556;2022-09-20T06:52:42;93548.84;;;10.82;75.36
10466;BME280;5280;42.600;23.556;2022-09-20T06:55:17;93567.59;;;11.01;75.70
10466;BME280;5280;42.600;23.556;2022-09-20T06:57:46;93574.56;;;11.02;74.83
10466;BME280;5280;42.600;23.556;2022-09-20T07:00:14;93543.78;;;11.01;76.06
10466;BME280;5280;42.600;23.556;2022-09-20T07:02:42;93577.09;;;11.26;74.58
10466;BME280;5280;42.600;23.556;2022-09-20T07:05:13;93572.66;;;11.27;74.44
10466;BME280;5280;42.600;23.556;2022-09-20T07:07:40;93555.34;;;11.34;73.28
10466;BME280;5280;42.600;23.556;2022-09-20T07:10:08;93592.00;;;11.49;72.47
10466;BME280;5280;42.600;23.556;2022-09-20T07:12:37;93589.47;;;11.59;72.80
10466;BME280;5280;42.600;23.556;2022-09-20T07:15:08;93566.88;;;11.55;72.63
10466;BME280;5280;42.600;23.556;2022-09-20T07:17:35;93588.00;;;11.88;72.18
10466;BME280;5280;42.600;23.556;2022-09-20T07:20:05;93563.91;;;11.91;70.34
10466;BME280;5280;42.600;23.556;2022-09-20T07:22:32;93555.56;;;11.96;71.13
10466;BME280;5280;42.600;23.556;2022-09-20T07:24:59;93557.81;;;12.12;69.45
10466;BME280;5280;42.600;23.556;2022-09-20T07:27:29;93597.19;;;12.48;69.49
10466;BME280;5280;42.600;23.556;2022-09-20T07:29:57;93524.50;;;12.30;69.27
10466;BME280;5280;42.600;23.556;2022-09-20T07:32:24;93509.97;;;12.24;67.13
10466;BME280;5280;42.600;23.556;2022-09-20T07:34:51;93535.75;;;12.43;66.81
10466;BME280;5280;42.600;23.556;2022-09-20T07:37:18;93591.75;;;12.91;66.85
10466;BME280;5280;42.600;23.556;2022-09-20T07:39:45;93601.53;;;12.90;65.34
10466;BME280;5280;42.600;23.556;2022-09-20T07:42:13;93594.16;;;12.94;65.22
10466;BME280;5280;42.600;23.556;2022-09-20T07:44:40;93593.25;;;13.05;64.42
10466;BME280;5280;42.600;23.556;2022-09-20T07:47:09;93580.19;;;13.13;64.81
10466;BME280;5280;42.600;23.556;2022-09-20T07:49:37;93580.63;;;13.18;63.47
10466;BME280;5280;42.600;23.556;2022-09-20T07:52:04;93547.25;;;12.94;63.16
10466;BME280;5280;42.600;23.556;2022-09-20T07:54:32;93579.91;;;13.16;62.62
10466;BME280;5280;42.600;23.556;2022-09-20T07:56:59;93590.91;;;13.32;61.45
10466;BME280;5280;42.600;23.556;2022-09-20T07:59:26;93571.78;;;13.38;61.88
10466;BME280;5280;42.600;23.556;2022-09-20T08:01:53;93577.97;;;13.48;61.79
10466;BME280;5280;42.600;23.556;2022-09-20T08:04:23;93577.31;;;13.65;59.98
10466;BME280;5280;42.600;23.556;2022-09-20T08:06:50;93511.25;;;13.32;59.32
10466;BME280;5280;42.600;23.556;2022-09-20T08:09:17;93586.78;;;13.89;58.89
10466;BME280;5280;42.600;23.556;2022-09-20T08:11:44;93573.28;;;13.71;59.29
10466;BME280;5280;42.600;23.556;2022-09-20T08:14:13;93576.41;;;13.86;57.00
10466;BME280;5280;42.600;23.556;2022-09-20T08:16:43;93574.19;;;13.91;59.10
10466;BME280;5280;42.600;23.556;2022-09-20T08:19:14;93552.28;;;14.08;58.22
10466;BME280;5280;42.600;23.556;2022-09-20T08:21:43;93571.72;;;14.18;54.99
10466;BME280;5280;42.600;23.556;2022-09-20T08:24:10;93577.88;;;14.18;56.36
10466;BME280;5280;42.600;23.556;2022-09-20T08:26:38;93566.97;;;14.12;56.78
10466;BME280;5280;42.600;23.556;2022-09-20T08:29:05;93567.50;;;14.25;56.86
10466;BME280;5280;42.600;23.556;2022-09-20T08:31:35;93569.66;;;14.41;56.36
10466;BME280;5280;42.600;23.556;2022-09-20T08:34:03;93563.09;;;14.54;55.97
10466;BME280;5280;42.600;23.556;2022-09-20T08:36:31;93560.28;;;14.65;53.06
10466;BME280;5280;42.600;23.556;2022-09-20T08:39:00;93562.94;;;14.65;52.74
10466;BME280;5280;42.600;23.556;2022-09-20T08:41:29;93557.34;;;14.59;51.91
10466;BME280;5280;42.600;23.556;2022-09-20T08:44:02;93532.28;;;14.52;53.32
10466;BME280;5280;42.600;23.556;2022-09-20T08:46:32;93552.00;;;14.78;53.17
10466;BME280;5280;42.600;23.556;2022-09-20T08:49:03;93546.25;;;14.92;52.59
10466;BME280;5280;42.600;23.556;2022-09-20T08:51:37;93541.03;;;15.00;50.86
10466;BME280;5280;42.600;23.556;2022-09-20T08:54:09;93526.19;;;14.98;49.16
10466;BME280;5280;42.600;23.556;2022-09-20T08:56:38;93539.75;;;15.04;49.21
10466;BME280;5280;42.600;23.556;2022-09-20T08:59:10;93542.75;;;14.92;49.82
10466;BME280;5280;42.600;23.556;2022-09-20T09:01:40;93541.03;;;15.00;49.67
10466;BME280;5280;42.600;23.556;2022-09-20T09:04:12;93535.00;;;15.08;52.23
10466;BME280;5280;42.600;23.556;2022-09-20T09:06:40;93535.22;;;15.24;49.79
10466;BME280;5280;42.600;23.556;2022-09-20T09:09:15;93515.31;;;15.28;50.11
10466;BME280;5280;42.600;23.556;2022-09-20T09:11:48;93519.44;;;15.40;49.31
10466;BME280;5280;42.600;23.556;2022-09-20T09:14:23;93528.19;;;15.33;49.68
10466;BME280;5280;42.600;23.556;2022-09-20T09:17:09;93510.22;;;15.35;48.55
10466;BME280;5280;42.600;23.556;2022-09-20T09:19:45;93518.34;;;15.43;49.10
10466;BME280;5280;42.600;23.556;2022-09-20T09:22:21;93512.31;;;15.41;49.43
10466;BME280;5280;42.600;23.556;2022-09-20T09:25:23;93509.78;;;15.39;48.82
10466;BME280;5280;42.600;23.556;2022-09-20T09:27:53;93509.19;;;15.45;49.71
10466;BME280;5280;42.600;23.556;2022-09-20T09:30:24;93503.41;;;15.60;49.03
10466;BME280;5280;42.600;23.556;2022-09-20T09:32:52;93491.72;;;15.70;47.97
10466;BME280;5280;42.600;23.556;2022-09-20T09:35:28;93501.84;;;15.84;48.02
10466;BME280;5280;42.600;23.556;2022-09-20T09:37:58;93498.81;;;15.79;46.15
10466;BME280;5280;42.600;23.556;2022-09-20T09:40:27;93477.78;;;15.59;47.17
10466;BME280;5280;42.600;23.556;2022-09-20T09:42:57;93492.50;;;15.80;46.54
10466;BME280;5280;42.600;23.556;2022-09-20T09:45:30;93476.09;;;15.58;48.35
10466;BME280;5280;42.600;23.556;2022-09-20T09:48:00;93504.97;;;15.80;47.86
10466;BME280;5280;42.600;23.556;2022-09-20T09:50:28;93479.03;;;16.00;47.32
10466;BME280;5280;42.600;23.556;2022-09-20T09:52:58;93485.91;;;16.20;46.84
10466;BME280;5280;42.600;23.556;2022-09-20T09:55:40;93467.69;;;16.15;44.78
10466;BME280;5280;42.600;23.556;2022-09-20T09:58:14;93476.91;;;16.03;44.83
10466;BME280;5280;42.600;23.556;2022-09-20T10:00:48;93479.34;;;15.97;45.80
10466;BME280;5280;42.600;23.556;2022-09-20T10:06:15;93467.69;;;15.98;46.23
10466;BME280;5280;42.600;23.556;2022-09-20T10:08:52;93482.00;;;16.14;45.46
10466;BME280;5280;42.600;23.556;2022-09-20T10:11:30;93467.78;;;16.23;44.33
10466;BME280;5280;42.600;23.556;2022-09-20T10:14:16;93467.16;;;16.29;44.42
10466;BME280;5280;42.600;23.556;2022-09-20T10:16:58;93478.09;;;16.44;45.20
10466;BME280;5280;42.600;23.556;2022-09-20T10:19:40;93474.44;;;16.45;45.54
10466;BME280;5280;42.600;23.556;2022-09-20T10:22:19;93478.88;;;16.36;46.02
10466;BME280;5280;42.600;23.556;2022-09-20T10:25:01;93479.25;;;16.42;46.42
10466;BME280;5280;42.600;23.556;2022-09-20T10:27:43;93478.75;;;16.38;45.08
10466;BME280;5280;42.600;23.556;2022-09-20T10:30:17;93467.84;;;16.31;44.88
10466;BME280;5280;42.600;23.556;2022-09-20T10:33:02;93439.50;;;15.95;45.13
10466;BME280;5280;42.600;23.556;2022-09-20T10:35:52;93449.81;;;16.08;45.50
10466;BME280;5280;42.600;23.556;2022-09-20T10:38:24;93473.25;;;16.22;43.62
10466;BME280;5280;42.600;23.556;2022-09-20T10:41:14;93461.69;;;16.13;44.21
10466;BME280;5280;42.600;23.556;2022-09-20T10:44:14;93473.56;;;16.01;44.41
10466;BME280;5280;42.600;23.556;2022-09-20T10:46:57;93462.72;;;15.85;44.33
10466;BME280;5280;42.600;23.556;2022-09-20T10:49:31;93453.81;;;15.59;45.54
10466;BME280;5280;42.600;23.556;2022-09-20T10:52:10;93472.72;;;15.56;44.38
10466;BME280;5280;42.600;23.556;2022-09-20T10:54:53;93468.56;;;15.43;43.58
10466;BME280;5280;42.600;23.556;2022-09-20T11:03:58;93466.72;;;15.54;45.23
10466;BME280;5280;42.600;23.556;2022-09-20T11:06:39;93456.47;;;15.59;46.23
10466;BME280;5280;42.600;23.556;2022-09-20T11:09:12;93432.78;;;15.56;45.25
10466;BME280;5280;42.600;23.556;2022-09-20T11:11:42;93459.31;;;15.92;44.27
10466;BME280;5280;42.600;23.556;2022-09-20T11:14:11;93446.97;;;15.91;43.58
10466;BME280;5280;42.600;23.556;2022-09-20T11:16:41;93445.69;;;15.96;44.26
10466;BME280;5280;42.600;23.556;2022-09-20T11:19:17;93391.91;;;15.65;44.63
10466;BME280;5280;42.600;23.556;2022-09-20T11:21:50;93439.69;;;15.93;43.86
10466;BME280;5280;42.600;23.556;2022-09-20T11:24:26;93440.28;;;15.87;45.50
10466;BME280;5280;42.600;23.556;2022-09-20T11:26:57;93441.13;;;15.88;44.43
10466;BME280;5280;42.600;23.556;2022-09-20T11:29:30;93391.31;;;15.53;44.58
10466;BME280;5280;42.600;23.556;2022-09-20T11:32:05;93444.84;;;15.95;43.87
10466;BME280;5280;42.600;23.556;2022-09-20T11:34:43;93436.94;;;16.03;44.20
10466;BME280;5280;42.600;23.556;2022-09-20T11:37:13;93440.19;;;15.97;44.73
10466;BME280;5280;42.600;23.556;2022-09-20T11:39:44;93436.53;;;15.80;43.73
10466;BME280;5280;42.600;23.556;2022-09-20T11:42:17;93437.44;;;15.89;44.47
10466;BME280;5280;42.600;23.556;2022-09-20T11:44:45;93433.03;;;15.98;44.53
10466;BME280;5280;42.600;23.556;2022-09-20T11:47:16;93418.56;;;16.00;44.58
10466;BME280;5280;42.600;23.556;2022-09-20T11:50:01;93434.72;;;15.99;45.58
10466;BME280;5280;42.600;23.556;2022-09-20T11:52:55;93438.53;;;16.14;45.52
10466;BME280;5280;42.600;23.556;2022-09-20T11:55:39;93430.69;;;16.12;43.34
10466;BME280;5280;42.600;23.556;2022-09-20T11:58:12;93384.13;;;15.89;42.13
10466;BME280;5280;42.600;23.556;2022-09-20T12:00:43;93415.59;;;16.03;43.13
10466;BME280;5280;42.600;23.556;2022-09-20T12:03:23;93424.03;;;16.16;43.54
10466;BME280;5280;42.600;23.556;2022-09-20T12:05:58;93393.97;;;16.06;43.58
10466;BME280;5280;42.600;23.556;2022-09-20T12:08:29;93426.47;;;16.27;43.75
10466;BME280;5280;42.600;23.556;2022-09-20T12:10:59;93431.03;;;16.35;44.08
10466;BME280;5280;42.600;23.556;2022-09-20T12:13:29;93421.88;;;16.38;42.97
10466;BME280;5280;42.600;23.556;2022-09-20T12:15:58;93411.88;;;16.40;41.53
10466;BME280;5280;42.600;23.556;2022-09-20T12:21:22;93418.47;;;16.27;41.17
10466;BME280;5280;42.600;23.556;2022-09-20T12:24:17;93424.75;;;16.18;42.46
10466;BME280;5280;42.600;23.556;2022-09-20T12:26:50;93413.31;;;16.08;42.51
10466;BME280;5280;42.600;23.556;2022-09-20T12:29:52;93421.00;;;16.11;42.31
10466;BME280;5280;42.600;23.556;2022-09-20T12:32:47;93407.44;;;16.05;42.04
10466;BME280;5280;42.600;23.556;2022-09-20T12:38:37;93405.31;;;15.90;42.82
10466;BME280;5280;42.600;23.556;2022-09-20T12:41:10;93412.84;;;15.95;41.94
10466;BME280;5280;42.600;23.556;2022-09-20T12:43:54;93412.56;;;15.98;43.26
10466;BME280;5280;42.600;23.556;2022-09-20T12:46:32;93404.00;;;15.94;42.60
10466;BME280;5280;42.600;23.556;2022-09-20T12:49:18;93422.31;;;16.07;42.98
10466;BME280;5280;42.600;23.556;2022-09-20T12:52:22;93411.25;;;16.02;42.52
10466;BME280;5280;42.600;23.556;2022-09-20T12:55:10;93411.53;;;15.99;43.63
10466;BME280;5280;42.600;23.556;2022-09-20T12:57:38;93413.78;;;16.04;43.50
10466;BME280;5280;42.600;23.556;2022-09-20T13:00:06;93417.06;;;15.98;43.38
10466;BME280;5280;42.600;23.556;2022-09-20T13:02:58;93411.72;;;15.98;42.71
10466;BME280;5280;42.600;23.556;2022-09-20T13:05:33;93417.97;;;15.88;43.03
10466;BME280;5280;42.600;23.556;2022-09-20T13:08:12;93407.78;;;15.84;43.83
10466;BME280;5280;42.600;23.556;2022-09-20T13:10:47;93364.06;;;15.49;44.33
10466;BME280;5280;42.600;23.556;2022-09-20T13:13:30;93413.00;;;15.76;43.24
10466;BME280;5280;42.600;23.556;2022-09-20T13:16:01;93391.00;;;15.74;42.96
10466;BME280;5280;42.600;23.556;2022-09-20T13:18:34;93377.13;;;15.70;43.53
10466;BME280;5280;42.600;23.556;2022-09-20T13:21:02;93400.97;;;15.89;44.08
10466;BME280;5280;42.600;23.556;2022-09-20T13:23:43;93405.63;;;15.87;42.91
10466;BME280;5280;42.600;23.556;2022-09-20T13:26:13;93401.19;;;15.96;43.10
10466;BME280;5280;42.600;23.556;2022-09-20T13:28:46;93382.38;;;15.80;44.31
10466;BME280;5280;42.600;23.556;2022-09-20T13:31:22;93404.63;;;16.06;41.92
10466;BME280;5280;42.600;23.556;2022-09-20T13:33:50;93332.53;;;15.72;43.13
10466;BME280;5280;42.600;23.556;2022-09-20T13:36:24;93397.97;;;16.10;42.19
10466;BME280;5280;42.600;23.556;2022-09-20T13:38:55;93391.16;;;16.08;41.83
10466;BME280;5280;42.600;23.556;2022-09-20T13:41:26;93394.56;;;16.00;43.55
10466;BME280;5280;42.600;23.556;2022-09-20T13:43:59;93398.00;;;15.92;43.82
10466;BME280;5280;42.600;23.556;2022-09-20T13:46:28;93395.72;;;15.98;43.46
10466;BME280;5280;42.600;23.556;2022-09-20T13:49:08;93394.75;;;15.99;42.39
10466;BME280;5280;42.600;23.556;2022-09-20T13:51:35;93388.09;;;15.85;41.77
10466;BME280;5280;42.600;23.556;2022-09-20T13:54:23;93357.50;;;15.54;43.16
10466;BME280;5280;42.600;23.556;2022-09-20T13:56:55;93393.38;;;15.77;43.12
10466;BME280;5280;42.600;23.556;2022-09-20T13:59:24;93393.13;;;15.70;42.67
10466;BME280;5280;42.600;23.556;2022-09-20T14:01:53;93397.84;;;15.76;43.26
10466;BME280;5280;42.600;23.556;2022-09-20T14:04:22;93402.78;;;15.71;43.45
10466;BME280;5280;42.600;23.556;2022-09-20T14:06:53;93395.25;;;15.67;42.68
10466;BME280;5280;42.600;23.556;2022-09-20T14:09:31;93402.94;;;15.70;41.92
10466;BME280;5280;42.600;23.556;2022-09-20T14:12:02;93374.72;;;15.49;43.01
10466;BME280;5280;42.600;23.556;2022-09-20T14:14:32;93389.94;;;15.67;41.89
10466;BME280;5280;42.600;23.556;2022-09-20T14:17:00;93380.03;;;15.59;41.28
10466;BME280;5280;42.600;23.556;2022-09-20T14:19:31;93385.66;;;15.56;42.19
10466;BME280;5280;42.600;23.556;2022-09-20T14:22:03;93378.69;;;15.45;42.35
10466;BME280;5280;42.600;23.556;2022-09-20T14:24:31;93390.84;;;15.58;42.30
10466;BME280;5280;42.600;23.556;2022-09-20T14:27:22;93381.34;;;15.45;41.94
10466;BME280;5280;42.600;23.556;2022-09-20T14:29:50;93394.66;;;15.45;42.88
10466;BME280;5280;42.600;23.556;2022-09-20T14:35:13;93388.94;;;15.40;42.77